sensor_id;sensor_type;location;lat;lon;timestamp;temperature;humidity
41220;DHT22;26951;47.338;9.196;2022-09-13T00:01:20;12.40;63.50
41220;DHT22;26951;47.338;9.196;2022-09-13T00:04:05;12.50;64.50
41220;DHT22;26951;47.338;9.196;2022-09-13T00:06:50;12.50;64.30
41220;DHT22;26951;47.338;9.196;2022-09-13T00:09:34;12.50;64.70
41220;DHT22;26951;47.338;9.196;2022-09-13T00:12:18;12.50;64.10
41220;DHT22;26951;47.338;9.196;2022-09-13T00:15:03;12.40;63.30
41220;DHT22;26951;47.338;9.196;2022-09-13T00:17:47;12.40;64.10
41220;DHT22;26951;47.338;9.196;2022-09-13T00:20:31;12.40;63.70
41220;DHT22;26951;47.338;9.196;2022-09-13T00:23:16;12.40;63.70
41220;DHT22;26951;47.338;9.196;2022-09-13T00:26:09;12.40;64.10
41220;DHT22;26951;47.338;9.196;2022-09-13T00:28:56;12.40;64.30
41220;DHT22;26951;47.338;9.196;2022-09-13T00:31:40;12.40;64.70
41220;DHT22;26951;47.338;9.196;2022-09-13T00:34:24;12.40;64.30
41220;DHT22;26951;47.338;9.196;2022-09-13T00:37:08;12.40;64.90
41220;DHT22;26951;47.338;9.196;2022-09-13T00:39:53;12.40;64.70
41220;DHT22;26951;47.338;9.196;2022-09-13T00:42:37;12.40;64.90
41220;DHT22;26951;47.338;9.196;2022-09-13T00:45:22;12.40;64.70
41220;DHT22;26951;47.338;9.196;2022-09-13T00:48:07;12.40;63.80
41220;DHT22;26951;47.338;9.196;2022-09-13T00:50:54;12.30;63.70
41220;DHT22;26951;47.338;9.196;2022-09-13T00:53:43;12.30;63.80
41220;DHT22;26951;47.338;9.196;2022-09-13T00:56:37;12.30;64.90
41220;DHT22;26951;47.338;9.196;2022-09-13T00:59:29;12.30;64.20
41220;DHT22;26951;47.338;9.196;2022-09-13T01:02:14;12.30;64.40
41220;DHT22;26951;47.338;9.196;2022-09-13T01:04:59;12.30;64.40
41220;DHT22;26951;47.338;9.196;2022-09-13T01:07:43;12.30;64.80
41220;DHT22;26951;47.338;9.196;2022-09-13T01:10:27;12.30;64.90
41220;DHT22;26951;47.338;9.196;2022-09-13T01:13:20;12.30;65.20
41220;DHT22;26951;47.338;9.196;2022-09-13T01:16:06;12.30;65.80
41220;DHT22;26951;47.338;9.196;2022-09-13T01:18:50;12.30;65.20
41220;DHT22;26951;47.338;9.196;2022-09-13T01:30:38;12.30;65.30
41220;DHT22;26951;47.338;9.196;2022-09-13T01:40:30;12.30;65.40
41220;DHT22;26951;47.338;9.196;2022-09-13T01:46:23;12.30;65.20
41220;DHT22;26951;47.338;9.196;2022-09-13T01:49:13;12.20;64.90
41220;DHT22;26951;47.338;9.196;2022-09-13T01:52:06;12.20;65.30
41220;DHT22;26951;47.338;9.196;2022-09-13T01:55:07;12.20;65.40
41220;DHT22;26951;47.338;9.196;2022-09-13T02:01:15;12.10;64.50
41220;DHT22;26951;47.338;9.196;2022-09-13T02:04:06;12.10;65.70
41220;DHT22;26951;47.338;9.196;2022-09-13T02:07:06;12.10;65.60
41220;DHT22;26951;47.338;9.196;2022-09-13T02:09:57;12.10;64.50
41220;DHT22;26951;47.338;9.196;2022-09-13T02:12:44;12.10;64.40
41220;DHT22;26951;47.338;9.196;2022-09-13T02:15:35;12.10;64.10
41220;DHT22;26951;47.338;9.196;2022-09-13T02:18:31;12.10;65.10
41220;DHT22;26951;47.338;9.196;2022-09-13T02:21:19;12.20;65.60
41220;DHT22;26951;47.338;9.196;2022-09-13T02:24:12;12.10;65.20
41220;DHT22;26951;47.338;9.196;2022-09-13T02:27:03;12.10;64.40
41220;DHT22;26951;47.338;9.196;2022-09-13T02:29:51;12.10;64.90
41220;DHT22;26951;47.338;9.196;2022-09-13T02:35:58;12.10;64.70
41220;DHT22;26951;47.338;9.196;2022-09-13T02:38:51;12.10;65.10
41220;DHT22;26951;47.338;9.196;2022-09-13T02:44:46;12.10;64.90
41220;DHT22;26951;47.338;9.196;2022-09-13T02:47:47;12.00;64.60
41220;DHT22;26951;47.338;9.196;2022-09-13T02:50:44;12.00;65.00
41220;DHT22;26951;47.338;9.196;2022-09-13T02:57:00;12.00;65.40
41220;DHT22;26951;47.338;9.196;2022-09-13T02:59:48;12.00;64.90
41220;DHT22;26951;47.338;9.196;2022-09-13T03:02:33;12.00;64.90
41220;DHT22;26951;47.338;9.196;2022-09-13T03:05:17;12.00;65.00
41220;DHT22;26951;47.338;9.196;2022-09-13T03:08:01;12.00;64.80
41220;DHT22;26951;47.338;9.196;2022-09-13T03:29:03;12.00;64.10
41220;DHT22;26951;47.338;9.196;2022-09-13T03:37:49;11.90;64.30
41220;DHT22;26951;47.338;9.196;2022-09-13T03:40:42;11.90;64.40
41220;DHT22;26951;47.338;9.196;2022-09-13T03:43:43;11.90;64.50
41220;DHT22;26951;47.338;9.196;2022-09-13T03:46:32;12.00;64.90
41220;DHT22;26951;47.338;9.196;2022-09-13T03:49:19;12.00;64.80
41220;DHT22;26951;47.338;9.196;2022-09-13T03:52:06;12.00;64.00
41220;DHT22;26951;47.338;9.196;2022-09-13T03:54:51;12.00;64.00
41220;DHT22;26951;47.338;9.196;2022-09-13T03:57:35;12.00;64.00
41220;DHT22;26951;47.338;9.196;2022-09-13T04:00:20;12.00;63.70
41220;DHT22;26951;47.338;9.196;2022-09-13T04:03:05;12.00;64.60
41220;DHT22;26951;47.338;9.196;2022-09-13T04:05:49;12.00;65.20
41220;DHT22;26951;47.338;9.196;2022-09-13T04:08:33;12.00;64.90
41220;DHT22;26951;47.338;9.196;2022-09-13T04:11:17;12.00;64.60
41220;DHT22;26951;47.338;9.196;2022-09-13T04:14:04;11.90;64.50
41220;DHT22;26951;47.338;9.196;2022-09-13T04:16:48;11.90;63.90
41220;DHT22;26951;47.338;9.196;2022-09-13T04:19:32;11.90;64.40
41220;DHT22;26951;47.338;9.196;2022-09-13T04:22:16;11.90;64.30
41220;DHT22;26951;47.338;9.196;2022-09-13T04:25:00;11.90;65.20
41220;DHT22;26951;47.338;9.196;2022-09-13T04:27:44;11.90;64.90
41220;DHT22;26951;47.338;9.196;2022-09-13T04:30:28;11.90;64.40
41220;DHT22;26951;47.338;9.196;2022-09-13T04:33:13;11.90;64.20
41220;DHT22;26951;47.338;9.196;2022-09-13T04:35:58;11.90;64.50
41220;DHT22;26951;47.338;9.196;2022-09-13T04:38:45;11.90;65.00
41220;DHT22;26951;47.338;9.196;2022-09-13T04:41:29;11.90;65.40
41220;DHT22;26951;47.338;9.196;2022-09-13T04:44:15;11.90;65.40
41220;DHT22;26951;47.338;9.196;2022-09-13T04:46:59;11.90;65.20
41220;DHT22;26951;47.338;9.196;2022-09-13T04:49:43;11.80;65.50
41220;DHT22;26951;47.338;9.196;2022-09-13T04:52:27;11.80;65.20
41220;DHT22;26951;47.338;9.196;2022-09-13T04:55:12;11.80;65.00
41220;DHT22;26951;47.338;9.196;2022-09-13T04:57:57;11.80;64.60
41220;DHT22;26951;47.338;9.196;2022-09-13T05:00:41;11.90;64.90
41220;DHT22;26951;47.338;9.196;2022-09-13T05:03:25;11.90;64.50
41220;DHT22;26951;47.338;9.196;2022-09-13T05:06:14;11.90;64.60
41220;DHT22;26951;47.338;9.196;2022-09-13T05:09:00;11.90;64.30
41220;DHT22;26951;47.338;9.196;2022-09-13T05:11:45;12.00;64.10
41220;DHT22;26951;47.338;9.196;2022-09-13T05:14:29;12.00;64.70
41220;DHT22;26951;47.338;9.196;2022-09-13T05:17:13;12.00;64.30
41220;DHT22;26951;47.338;9.196;2022-09-13T05:19:57;12.00;64.40
41220;DHT22;26951;47.338;9.196;2022-09-13T05:22:41;12.00;64.60
41220;DHT22;26951;47.338;9.196;2022-09-13T05:25:26;12.10;64.30
41220;DHT22;26951;47.338;9.196;2022-09-13T05:28:10;12.10;64.40
41220;DHT22;26951;47.338;9.196;2022-09-13T05:31:24;12.10;64.20
41220;DHT22;26951;47.338;9.196;2022-09-13T05:34:14;12.20;64.50
41220;DHT22;26951;47.338;9.196;2022-09-13T05:36:59;12.30;65.30
41220;DHT22;26951;47.338;9.196;2022-09-13T05:39:43;12.30;65.50
41220;DHT22;26951;47.338;9.196;2022-09-13T05:42:27;12.30;65.60
41220;DHT22;26951;47.338;9.196;2022-09-13T05:45:11;12.30;66.10
41220;DHT22;26951;47.338;9.196;2022-09-13T05:47:56;12.30;66.60
41220;DHT22;26951;47.338;9.196;2022-09-13T05:50:40;12.30;67.60
41220;DHT22;26951;47.338;9.196;2022-09-13T05:53:25;12.40;69.10
41220;DHT22;26951;47.338;9.196;2022-09-13T05:56:11;12.60;71.30
41220;DHT22;26951;47.338;9.196;2022-09-13T05:58:55;12.80;72.30
41220;DHT22;26951;47.338;9.196;2022-09-13T06:01:40;13.00;76.40
41220;DHT22;26951;47.338;9.196;2022-09-13T06:04:24;13.30;75.60
41220;DHT22;26951;47.338;9.196;2022-09-13T06:07:11;13.70;79.10
41220;DHT22;26951;47.338;9.196;2022-09-13T06:09:55;14.00;76.20
41220;DHT22;26951;47.338;9.196;2022-09-13T06:12:39;14.40;74.30
41220;DHT22;26951;47.338;9.196;2022-09-13T06:15:23;14.80;76.80
41220;DHT22;26951;47.338;9.196;2022-09-13T06:18:07;15.10;67.60
41220;DHT22;26951;47.338;9.196;2022-09-13T06:20:59;15.50;69.60
41220;DHT22;26951;47.338;9.196;2022-09-13T06:23:45;15.90;70.00
41220;DHT22;26951;47.338;9.196;2022-09-13T06:26:30;16.30;63.10
41220;DHT22;26951;47.338;9.196;2022-09-13T06:29:15;16.60;65.20
41220;DHT22;26951;47.338;9.196;2022-09-13T06:31:59;17.00;62.20
41220;DHT22;26951;47.338;9.196;2022-09-13T06:34:43;17.40;64.90
41220;DHT22;26951;47.338;9.196;2022-09-13T06:37:27;17.80;64.50
41220;DHT22;26951;47.338;9.196;2022-09-13T06:40:11;18.20;63.50
41220;DHT22;26951;47.338;9.196;2022-09-13T06:42:56;18.60;62.10
41220;DHT22;26951;47.338;9.196;2022-09-13T06:45:40;19.00;57.60
41220;DHT22;26951;47.338;9.196;2022-09-13T06:48:25;19.30;55.30
41220;DHT22;26951;47.338;9.196;2022-09-13T06:51:14;19.60;58.70
41220;DHT22;26951;47.338;9.196;2022-09-13T06:53:59;19.90;56.50
41220;DHT22;26951;47.338;9.196;2022-09-13T06:56:44;20.20;53.50
41220;DHT22;26951;47.338;9.196;2022-09-13T06:59:28;20.60;58.30
41220;DHT22;26951;47.338;9.196;2022-09-13T07:02:12;20.90;56.40
41220;DHT22;26951;47.338;9.196;2022-09-13T07:04:57;21.30;57.20
41220;DHT22;26951;47.338;9.196;2022-09-13T07:07:42;21.70;57.10
41220;DHT22;26951;47.338;9.196;2022-09-13T07:10:26;22.00;57.80
41220;DHT22;26951;47.338;9.196;2022-09-13T07:13:10;22.40;56.20
41220;DHT22;26951;47.338;9.196;2022-09-13T07:15:54;22.80;55.20
41220;DHT22;26951;47.338;9.196;2022-09-13T07:18:38;23.10;54.30
41220;DHT22;26951;47.338;9.196;2022-09-13T07:21:23;23.40;54.90
41220;DHT22;26951;47.338;9.196;2022-09-13T07:24:07;23.70;53.50
41220;DHT22;26951;47.338;9.196;2022-09-13T07:26:52;23.90;52.40
41220;DHT22;26951;47.338;9.196;2022-09-13T07:29:36;24.10;52.20
41220;DHT22;26951;47.338;9.196;2022-09-13T07:32:20;24.30;51.10
41220;DHT22;26951;47.338;9.196;2022-09-13T07:35:05;24.60;52.60
41220;DHT22;26951;47.338;9.196;2022-09-13T07:37:50;24.90;52.00
41220;DHT22;26951;47.338;9.196;2022-09-13T07:40:34;25.10;50.20
41220;DHT22;26951;47.338;9.196;2022-09-13T07:43:19;25.20;49.70
41220;DHT22;26951;47.338;9.196;2022-09-13T07:46:09;25.30;51.20
41220;DHT22;26951;47.338;9.196;2022-09-13T07:48:55;25.50;52.10
41220;DHT22;26951;47.338;9.196;2022-09-13T07:51:41;25.70;51.10
41220;DHT22;26951;47.338;9.196;2022-09-13T07:54:25;25.90;48.80
41220;DHT22;26951;47.338;9.196;2022-09-13T07:57:09;26.10;50.60
41220;DHT22;26951;47.338;9.196;2022-09-13T07:59:54;26.20;48.40
41220;DHT22;26951;47.338;9.196;2022-09-13T08:02:38;26.40;49.70
41220;DHT22;26951;47.338;9.196;2022-09-13T08:05:22;26.60;48.50
41220;DHT22;26951;47.338;9.196;2022-09-13T08:08:07;26.70;46.90
41220;DHT22;26951;47.338;9.196;2022-09-13T08:10:51;26.90;48.60
41220;DHT22;26951;47.338;9.196;2022-09-13T08:13:35;27.00;47.40
41220;DHT22;26951;47.338;9.196;2022-09-13T08:16:21;27.20;47.70
41220;DHT22;26951;47.338;9.196;2022-09-13T08:19:06;27.30;47.80
41220;DHT22;26951;47.338;9.196;2022-09-13T08:21:51;27.50;47.70
41220;DHT22;26951;47.338;9.196;2022-09-13T08:24:35;27.60;46.70
41220;DHT22;26951;47.338;9.196;2022-09-13T08:27:20;27.80;44.90
41220;DHT22;26951;47.338;9.196;2022-09-13T08:30:04;27.90;45.10
41220;DHT22;26951;47.338;9.196;2022-09-13T08:32:49;28.00;44.40
41220;DHT22;26951;47.338;9.196;2022-09-13T08:35:35;28.30;43.20
41220;DHT22;26951;47.338;9.196;2022-09-13T08:38:19;28.40;44.40
41220;DHT22;26951;47.338;9.196;2022-09-13T08:41:19;28.60;42.00
41220;DHT22;26951;47.338;9.196;2022-09-13T08:50:33;29.30;41.80
41220;DHT22;26951;47.338;9.196;2022-09-13T08:53:29;29.40;42.00
41220;DHT22;26951;47.338;9.196;2022-09-13T09:02:51;29.80;38.80
41220;DHT22;26951;47.338;9.196;2022-09-13T09:05:48;29.80;40.00
41220;DHT22;26951;47.338;9.196;2022-09-13T09:08:42;29.90;39.40
41220;DHT22;26951;47.338;9.196;2022-09-13T09:17:05;30.20;38.80
41220;DHT22;26951;47.338;9.196;2022-09-13T09:20:05;30.30;39.90
41220;DHT22;26951;47.338;9.196;2022-09-13T09:22:52;30.50;38.40
41220;DHT22;26951;47.338;9.196;2022-09-13T09:25:37;30.70;39.00
41220;DHT22;26951;47.338;9.196;2022-09-13T09:28:22;30.80;38.70
41220;DHT22;26951;47.338;9.196;2022-09-13T09:31:17;31.00;38.40
41220;DHT22;26951;47.338;9.196;2022-09-13T09:34:36;31.10;38.10
41220;DHT22;26951;47.338;9.196;2022-09-13T09:37:28;31.20;38.00
41220;DHT22;26951;47.338;9.196;2022-09-13T09:40:13;31.40;38.00
41220;DHT22;26951;47.338;9.196;2022-09-13T09:43:00;31.50;37.20
41220;DHT22;26951;47.338;9.196;2022-09-13T09:45:45;31.60;37.20
41220;DHT22;26951;47.338;9.196;2022-09-13T09:48:36;31.70;37.10
41220;DHT22;26951;47.338;9.196;2022-09-13T09:51:22;31.80;35.70
41220;DHT22;26951;47.338;9.196;2022-09-13T09:54:09;31.80;36.70
41220;DHT22;26951;47.338;9.196;2022-09-13T09:56:55;31.80;28.90
41220;DHT22;26951;47.338;9.196;2022-09-13T09:59:39;31.60;32.00
41220;DHT22;26951;47.338;9.196;2022-09-13T10:02:23;31.50;29.60
41220;DHT22;26951;47.338;9.196;2022-09-13T10:05:08;31.20;30.30
41220;DHT22;26951;47.338;9.196;2022-09-13T10:07:59;31.20;31.60
41220;DHT22;26951;47.338;9.196;2022-09-13T10:10:52;31.00;30.40
41220;DHT22;26951;47.338;9.196;2022-09-13T10:13:37;30.80;32.10
41220;DHT22;26951;47.338;9.196;2022-09-13T10:16:27;30.60;34.10
41220;DHT22;26951;47.338;9.196;2022-09-13T10:19:25;30.40;32.30
41220;DHT22;26951;47.338;9.196;2022-09-13T10:22:11;30.20;31.70
41220;DHT22;26951;47.338;9.196;2022-09-13T10:25:22;30.00;34.70
41220;DHT22;26951;47.338;9.196;2022-09-13T10:28:12;30.00;36.50
41220;DHT22;26951;47.338;9.196;2022-09-13T10:34:02;30.20;36.50
41220;DHT22;26951;47.338;9.196;2022-09-13T10:36:59;30.30;35.10
41220;DHT22;26951;47.338;9.196;2022-09-13T10:42:54;30.00;33.30
41220;DHT22;26951;47.338;9.196;2022-09-13T10:45:39;29.90;31.00
41220;DHT22;26951;47.338;9.196;2022-09-13T10:48:24;29.60;34.70
41220;DHT22;26951;47.338;9.196;2022-09-13T10:54:22;29.40;34.60
41220;DHT22;26951;47.338;9.196;2022-09-13T10:57:35;29.30;35.50
41220;DHT22;26951;47.338;9.196;2022-09-13T11:00:22;29.40;38.60
41220;DHT22;26951;47.338;9.196;2022-09-13T11:09:59;29.50;33.80
41220;DHT22;26951;47.338;9.196;2022-09-13T11:19:57;29.70;31.40
41220;DHT22;26951;47.338;9.196;2022-09-13T11:25:57;29.60;33.00
41220;DHT22;26951;47.338;9.196;2022-09-13T11:29:00;29.50;32.40
41220;DHT22;26951;47.338;9.196;2022-09-13T11:32:03;29.40;29.20
41220;DHT22;26951;47.338;9.196;2022-09-13T11:41:02;29.40;32.00
41220;DHT22;26951;47.338;9.196;2022-09-13T11:53:07;29.10;32.60
41220;DHT22;26951;47.338;9.196;2022-09-13T11:56:09;29.10;33.40
41220;DHT22;26951;47.338;9.196;2022-09-13T11:58:59;29.10;32.70
41220;DHT22;26951;47.338;9.196;2022-09-13T12:01:54;28.90;33.30
41220;DHT22;26951;47.338;9.196;2022-09-13T12:04:51;28.80;35.80
41220;DHT22;26951;47.338;9.196;2022-09-13T12:07:51;28.90;34.10
41220;DHT22;26951;47.338;9.196;2022-09-13T12:10:45;29.00;34.70
41220;DHT22;26951;47.338;9.196;2022-09-13T12:13:38;29.20;35.00
41220;DHT22;26951;47.338;9.196;2022-09-13T12:16:40;29.30;33.40
41220;DHT22;26951;47.338;9.196;2022-09-13T12:19:41;29.40;34.40
41220;DHT22;26951;47.338;9.196;2022-09-13T12:22:28;29.50;35.50
41220;DHT22;26951;47.338;9.196;2022-09-13T12:25:24;29.50;35.60
41220;DHT22;26951;47.338;9.196;2022-09-13T12:31:34;29.40;36.40
41220;DHT22;26951;47.338;9.196;2022-09-13T12:34:30;29.30;37.40
41220;DHT22;26951;47.338;9.196;2022-09-13T12:37:26;29.30;37.60
41220;DHT22;26951;47.338;9.196;2022-09-13T12:43:44;29.20;38.10
41220;DHT22;26951;47.338;9.196;2022-09-13T12:56:31;29.00;33.90
41220;DHT22;26951;47.338;9.196;2022-09-13T12:59:28;28.80;36.30
41220;DHT22;26951;47.338;9.196;2022-09-13T13:02:37;28.70;37.60
41220;DHT22;26951;47.338;9.196;2022-09-13T13:05:39;28.60;39.10
41220;DHT22;26951;47.338;9.196;2022-09-13T13:08:27;28.40;37.10
41220;DHT22;26951;47.338;9.196;2022-09-13T13:11:13;28.40;43.00
41220;DHT22;26951;47.338;9.196;2022-09-13T13:13:58;28.50;45.10
41220;DHT22;26951;47.338;9.196;2022-09-13T13:16:43;28.50;40.40
41220;DHT22;26951;47.338;9.196;2022-09-13T13:19:33;28.40;40.00
41220;DHT22;26951;47.338;9.196;2022-09-13T13:22:49;28.40;40.30
41220;DHT22;26951;47.338;9.196;2022-09-13T13:25:36;28.30;39.10
41220;DHT22;26951;47.338;9.196;2022-09-13T13:37:04;28.20;42.30
41220;DHT22;26951;47.338;9.196;2022-09-13T13:40:26;28.30;40.10
41220;DHT22;26951;47.338;9.196;2022-09-13T13:43:31;28.30;41.30
41220;DHT22;26951;47.338;9.196;2022-09-13T13:46:24;28.30;42.20
41220;DHT22;26951;47.338;9.196;2022-09-13T14:01:02;28.20;42.10
41220;DHT22;26951;47.338;9.196;2022-09-13T14:06:53;28.00;43.10
41220;DHT22;26951;47.338;9.196;2022-09-13T14:10:10;28.00;43.00
41220;DHT22;26951;47.338;9.196;2022-09-13T14:13:18;27.90;44.20
41220;DHT22;26951;47.338;9.196;2022-09-13T14:16:33;27.80;44.10
41220;DHT22;26951;47.338;9.196;2022-09-13T14:22:17;27.60;44.10
41220;DHT22;26951;47.338;9.196;2022-09-13T14:28:01;27.40;44.80
41220;DHT22;26951;47.338;9.196;2022-09-13T14:30:45;27.40;44.70
41220;DHT22;26951;47.338;9.196;2022-09-13T14:33:33;27.30;44.90
41220;DHT22;26951;47.338;9.196;2022-09-13T14:36:20;27.30;43.90
41220;DHT22;26951;47.338;9.196;2022-09-13T14:39:07;27.20;43.80
41220;DHT22;26951;47.338;9.196;2022-09-13T14:42:01;27.10;43.90
41220;DHT22;26951;47.338;9.196;2022-09-13T14:44:46;27.10;43.80
41220;DHT22;26951;47.338;9.196;2022-09-13T14:47:52;27.00;43.30
41220;DHT22;26951;47.338;9.196;2022-09-13T14:50:55;26.90;44.40
41220;DHT22;26951;47.338;9.196;2022-09-13T14:53:41;26.90;44.80
41220;DHT22;26951;47.338;9.196;2022-09-13T15:00:04;26.60;45.50
41220;DHT22;26951;47.338;9.196;2022-09-13T15:02:26;26.50;46.00
41220;DHT22;26951;47.338;9.196;2022-09-13T15:05:13;26.40;46.20
41220;DHT22;26951;47.338;9.196;2022-09-13T15:07:59;26.20;45.80
41220;DHT22;26951;47.338;9.196;2022-09-13T15:10:43;26.10;46.90
41220;DHT22;26951;47.338;9.196;2022-09-13T15:13:28;26.10;48.50
41220;DHT22;26951;47.338;9.196;2022-09-13T15:16:27;26.20;49.60
41220;DHT22;26951;47.338;9.196;2022-09-13T15:20:01;26.20;49.20
41220;DHT22;26951;47.338;9.196;2022-09-13T15:22:41;26.20;49.30
41220;DHT22;26951;47.338;9.196;2022-09-13T15:25:27;26.20;50.30
41220;DHT22;26951;47.338;9.196;2022-09-13T15:28:20;26.20;49.20
41220;DHT22;26951;47.338;9.196;2022-09-13T15:31:04;26.20;48.10
41220;DHT22;26951;47.338;9.196;2022-09-13T15:40:00;25.90;48.20
41220;DHT22;26951;47.338;9.196;2022-09-13T15:42:49;25.80;49.20
41220;DHT22;26951;47.338;9.196;2022-09-13T15:45:34;25.70;48.50
41220;DHT22;26951;47.338;9.196;2022-09-13T15:48:27;25.60;49.70
41220;DHT22;26951;47.338;9.196;2022-09-13T15:51:13;25.50;50.40
41220;DHT22;26951;47.338;9.196;2022-09-13T15:53:57;25.50;51.00
41220;DHT22;26951;47.338;9.196;2022-09-13T15:56:44;25.40;50.90
41220;DHT22;26951;47.338;9.196;2022-09-13T15:59:28;25.40;51.70
41220;DHT22;26951;47.338;9.196;2022-09-13T16:02:18;25.30;51.90
41220;DHT22;26951;47.338;9.196;2022-09-13T16:05:04;25.30;52.10
41220;DHT22;26951;47.338;9.196;2022-09-13T16:07:50;25.20;52.90
41220;DHT22;26951;47.338;9.196;2022-09-13T16:10:34;25.10;53.20
41220;DHT22;26951;47.338;9.196;2022-09-13T16:13:19;25.00;53.40
41220;DHT22;26951;47.338;9.196;2022-09-13T16:16:03;24.90;53.50
41220;DHT22;26951;47.338;9.196;2022-09-13T16:18:47;24.80;54.20
41220;DHT22;26951;47.338;9.196;2022-09-13T16:21:31;24.70;54.20
41220;DHT22;26951;47.338;9.196;2022-09-13T16:24:16;24.60;54.20
41220;DHT22;26951;47.338;9.196;2022-09-13T16:27:00;24.50;52.90
41220;DHT22;26951;47.338;9.196;2022-09-13T16:29:44;24.20;51.60
41220;DHT22;26951;47.338;9.196;2022-09-13T16:32:29;24.10;51.70
41220;DHT22;26951;47.338;9.196;2022-09-13T16:35:14;23.90;52.20
41220;DHT22;26951;47.338;9.196;2022-09-13T16:38:00;23.80;53.30
41220;DHT22;26951;47.338;9.196;2022-09-13T16:40:44;23.60;52.20
41220;DHT22;26951;47.338;9.196;2022-09-13T16:43:28;23.50;52.50
41220;DHT22;26951;47.338;9.196;2022-09-13T16:46:13;23.40;53.60
41220;DHT22;26951;47.338;9.196;2022-09-13T16:48:58;23.30;54.20
41220;DHT22;26951;47.338;9.196;2022-09-13T16:51:42;23.10;54.30
41220;DHT22;26951;47.338;9.196;2022-09-13T16:54:28;23.10;54.40
41220;DHT22;26951;47.338;9.196;2022-09-13T16:57:17;23.00;55.00
41220;DHT22;26951;47.338;9.196;2022-09-13T17:00:05;22.90;55.20
41220;DHT22;26951;47.338;9.196;2022-09-13T17:02:53;22.70;54.30
41220;DHT22;26951;47.338;9.196;2022-09-13T17:05:38;22.60;54.00
41220;DHT22;26951;47.338;9.196;2022-09-13T17:08:22;22.50;54.40
41220;DHT22;26951;47.338;9.196;2022-09-13T17:11:08;22.50;55.10
41220;DHT22;26951;47.338;9.196;2022-09-13T17:13:54;22.30;55.50
41220;DHT22;26951;47.338;9.196;2022-09-13T17:16:53;22.20;55.20
41220;DHT22;26951;47.338;9.196;2022-09-13T17:19:38;22.10;55.00
41220;DHT22;26951;47.338;9.196;2022-09-13T17:22:22;21.90;54.80
41220;DHT22;26951;47.338;9.196;2022-09-13T17:25:07;21.80;54.70
41220;DHT22;26951;47.338;9.196;2022-09-13T17:27:51;21.70;54.70
41220;DHT22;26951;47.338;9.196;2022-09-13T17:30:35;21.60;55.50
41220;DHT22;26951;47.338;9.196;2022-09-13T17:33:20;21.50;55.50
41220;DHT22;26951;47.338;9.196;2022-09-13T17:36:06;21.30;55.90
41220;DHT22;26951;47.338;9.196;2022-09-13T17:38:55;21.10;56.00
41220;DHT22;26951;47.338;9.196;2022-09-13T17:41:39;21.00;56.00
41220;DHT22;26951;47.338;9.196;2022-09-13T17:44:24;20.90;56.20
41220;DHT22;26951;47.338;9.196;2022-09-13T17:47:09;20.80;56.00
41220;DHT22;26951;47.338;9.196;2022-09-13T17:49:52;20.70;55.70
41220;DHT22;26951;47.338;9.196;2022-09-13T17:52:37;20.60;55.90
41220;DHT22;26951;47.338;9.196;2022-09-13T17:55:21;20.50;56.00
41220;DHT22;26951;47.338;9.196;2022-09-13T17:58:06;20.40;56.70
41220;DHT22;26951;47.338;9.196;2022-09-13T18:00:50;20.40;57.10
41220;DHT22;26951;47.338;9.196;2022-09-13T18:03:35;20.20;57.20
41220;DHT22;26951;47.338;9.196;2022-09-13T18:06:21;20.20;57.40
41220;DHT22;26951;47.338;9.196;2022-09-13T18:09:05;20.10;57.60
41220;DHT22;26951;47.338;9.196;2022-09-13T18:11:50;20.10;58.20
41220;DHT22;26951;47.338;9.196;2022-09-13T18:14:34;20.00;58.30
41220;DHT22;26951;47.338;9.196;2022-09-13T18:17:18;20.00;58.40
41220;DHT22;26951;47.338;9.196;2022-09-13T18:20:02;20.00;58.90
41220;DHT22;26951;47.338;9.196;2022-09-13T18:22:46;19.90;59.60
41220;DHT22;26951;47.338;9.196;2022-09-13T18:25:31;19.90;59.00
41220;DHT22;26951;47.338;9.196;2022-09-13T18:28:14;19.80;59.30
41220;DHT22;26951;47.338;9.196;2022-09-13T18:31:02;19.80;58.80
41220;DHT22;26951;47.338;9.196;2022-09-13T18:34:03;19.80;61.00
41220;DHT22;26951;47.338;9.196;2022-09-13T18:36:47;19.70;60.30
41220;DHT22;26951;47.338;9.196;2022-09-13T18:39:31;19.60;59.70
41220;DHT22;26951;47.338;9.196;2022-09-13T18:42:15;19.60;61.10
41220;DHT22;26951;47.338;9.196;2022-09-13T18:44:59;19.60;61.70
41220;DHT22;26951;47.338;9.196;2022-09-13T18:47:43;19.50;62.90
41220;DHT22;26951;47.338;9.196;2022-09-13T18:50:27;19.50;63.30
41220;DHT22;26951;47.338;9.196;2022-09-13T18:53:11;19.40;62.20
41220;DHT22;26951;47.338;9.196;2022-09-13T18:55:59;19.40;62.30
41220;DHT22;26951;47.338;9.196;2022-09-13T18:58:44;19.40;62.10
41220;DHT22;26951;47.338;9.196;2022-09-13T19:01:31;19.40;62.90
41220;DHT22;26951;47.338;9.196;2022-09-13T19:04:19;19.30;63.10
41220;DHT22;26951;47.338;9.196;2022-09-13T19:07:04;19.30;63.80
41220;DHT22;26951;47.338;9.196;2022-09-13T19:09:50;19.30;62.30
41220;DHT22;26951;47.338;9.196;2022-09-13T19:12:34;19.20;62.20
41220;DHT22;26951;47.338;9.196;2022-09-13T19:15:18;19.20;61.90
41220;DHT22;26951;47.338;9.196;2022-09-13T19:18:02;19.20;61.50
41220;DHT22;26951;47.338;9.196;2022-09-13T19:20:46;19.10;62.40
41220;DHT22;26951;47.338;9.196;2022-09-13T19:23:33;19.10;61.50
41220;DHT22;26951;47.338;9.196;2022-09-13T19:26:23;19.00;60.70
41220;DHT22;26951;47.338;9.196;2022-09-13T19:29:11;18.90;60.90
41220;DHT22;26951;47.338;9.196;2022-09-13T19:31:56;18.80;62.90
41220;DHT22;26951;47.338;9.196;2022-09-13T19:34:40;18.80;64.00
41220;DHT22;26951;47.338;9.196;2022-09-13T19:37:24;18.70;64.80
41220;DHT22;26951;47.338;9.196;2022-09-13T19:40:10;18.70;65.50
41220;DHT22;26951;47.338;9.196;2022-09-13T19:42:55;18.70;64.90
41220;DHT22;26951;47.338;9.196;2022-09-13T19:45:39;18.60;65.30
41220;DHT22;26951;47.338;9.196;2022-09-13T19:48:23;18.60;64.90
41220;DHT22;26951;47.338;9.196;2022-09-13T19:51:12;18.60;64.80
41220;DHT22;26951;47.338;9.196;2022-09-13T19:54:01;18.60;65.00
41220;DHT22;26951;47.338;9.196;2022-09-13T19:56:45;18.50;64.50
41220;DHT22;26951;47.338;9.196;2022-09-13T19:59:30;18.50;65.40
41220;DHT22;26951;47.338;9.196;2022-09-13T20:02:17;18.40;65.30
41220;DHT22;26951;47.338;9.196;2022-09-13T20:05:01;18.30;67.40
41220;DHT22;26951;47.338;9.196;2022-09-13T20:07:45;18.40;68.10
41220;DHT22;26951;47.338;9.196;2022-09-13T20:10:30;18.30;66.90
41220;DHT22;26951;47.338;9.196;2022-09-13T20:13:14;18.30;67.40
41220;DHT22;26951;47.338;9.196;2022-09-13T20:15:58;18.30;68.00
41220;DHT22;26951;47.338;9.196;2022-09-13T20:18:42;18.30;67.30
41220;DHT22;26951;47.338;9.196;2022-09-13T20:21:28;18.20;67.80
41220;DHT22;26951;47.338;9.196;2022-09-13T20:24:13;18.20;68.40
41220;DHT22;26951;47.338;9.196;2022-09-13T20:26:58;18.30;69.10
41220;DHT22;26951;47.338;9.196;2022-09-13T20:29:42;18.30;68.90
41220;DHT22;26951;47.338;9.196;2022-09-13T20:32:27;18.20;67.90